createdAt,value
2019-05-30T00:02:07.028Z,16.60
2019-05-30T00:04:36.236Z,16.60
2019-05-30T00:07:05.353Z,16.50
2019-05-30T00:09:34.352Z,16.50
2019-05-30T00:12:03.340Z,16.50
2019-05-30T00:14:32.382Z,16.50
2019-05-30T00:17:01.415Z,16.50
2019-05-30T00:19:33.693Z,16.50
2019-05-30T00:22:01.426Z,16.50
2019-05-30T00:24:30.477Z,16.50
2019-05-30T00:27:00.272Z,16.50
2019-05-30T00:29:29.387Z,16.50
2019-05-30T00:31:59.379Z,16.50
2019-05-30T00:34:28.425Z,16.50
2019-05-30T00:36:57.712Z,16.50
2019-05-30T00:39:26.791Z,16.40
2019-05-30T00:41:56.057Z,16.40
2019-05-30T00:44:25.262Z,16.40
2019-05-30T00:46:54.325Z,16.40
2019-05-30T00:49:23.486Z,16.40
2019-05-30T00:51:52.526Z,16.40
2019-05-30T00:54:21.520Z,16.40
2019-05-30T00:56:50.507Z,16.30
2019-05-30T00:59:19.590Z,16.30
2019-05-30T01:01:48.584Z,16.30
2019-05-30T01:04:17.698Z,16.20
2019-05-30T01:06:46.782Z,16.20
2019-05-30T01:09:16.869Z,16.10
2019-05-30T01:11:45.952Z,16.10
2019-05-30T01:14:15.032Z,16.00
2019-05-30T01:16:44.117Z,16.00
2019-05-30T01:19:13.183Z,15.90
2019-05-30T01:21:42.260Z,15.90
2019-05-30T01:24:11.418Z,15.90
2019-05-30T01:26:40.505Z,15.80
2019-05-30T01:29:09.547Z,15.80
2019-05-30T01:31:38.526Z,15.80
2019-05-30T01:34:07.964Z,15.80
2019-05-30T01:36:37.115Z,15.70
2019-05-30T01:39:08.172Z,15.70
2019-05-30T01:41:37.363Z,15.70
2019-05-30T01:44:06.396Z,15.60
2019-05-30T01:46:35.451Z,15.60
2019-05-30T01:49:04.497Z,15.60
2019-05-30T01:51:33.550Z,15.60
2019-05-30T01:54:02.631Z,15.50
2019-05-30T01:56:31.655Z,15.50
2019-05-30T01:59:00.797Z,15.50
2019-05-30T02:01:29.851Z,15.40
2019-05-30T02:03:59.168Z,15.40
2019-05-30T02:06:28.180Z,15.40
2019-05-30T02:08:57.207Z,15.40
2019-05-30T02:11:26.262Z,15.30
2019-05-30T02:14:14.448Z,15.30
2019-05-30T02:16:43.557Z,15.30
2019-05-30T02:19:12.594Z,15.30
2019-05-30T02:21:41.583Z,15.30
2019-05-30T02:24:12.303Z,15.30
2019-05-30T02:26:41.524Z,15.30
2019-05-30T02:29:10.548Z,15.30
2019-05-30T02:31:40.015Z,15.30
2019-05-30T02:34:10.153Z,15.20
2019-05-30T02:36:39.897Z,15.20
2019-05-30T02:39:09.847Z,15.20
2019-05-30T02:41:39.757Z,15.20
2019-05-30T02:44:10.247Z,15.20
2019-05-30T02:46:39.491Z,15.20
2019-05-30T02:49:11.096Z,15.20
2019-05-30T02:51:39.306Z,15.20
2019-05-30T02:54:09.304Z,15.20
2019-05-30T02:56:39.076Z,15.20
2019-05-30T02:59:09.170Z,15.20
2019-05-30T03:01:59.270Z,15.20
2019-05-30T03:04:12.679Z,15.20
2019-05-30T03:06:41.401Z,15.20
2019-05-30T03:09:11.476Z,15.20
2019-05-30T03:12:01.899Z,15.20
2019-05-30T03:14:31.219Z,15.20
2019-05-30T03:17:02.331Z,15.20
2019-05-30T03:19:30.955Z,15.20
2019-05-30T03:22:03.453Z,15.20
2019-05-30T03:24:31.821Z,15.20
2019-05-30T03:27:02.456Z,15.20
2019-05-30T03:29:31.622Z,15.20
2019-05-30T03:32:33.954Z,15.30
2019-05-30T03:34:31.368Z,15.30
2019-05-30T03:37:00.364Z,15.30
2019-05-30T03:39:29.417Z,15.30
2019-05-30T03:41:58.455Z,15.30
2019-05-30T03:44:27.536Z,15.30
2019-05-30T03:46:57.959Z,15.30
2019-05-30T03:49:29.242Z,15.30
2019-05-30T03:51:58.678Z,15.30
2019-05-30T03:54:27.771Z,15.30
2019-05-30T03:57:02.462Z,15.30
2019-05-30T03:59:32.896Z,15.30
2019-05-30T04:02:58.152Z,15.20
2019-05-30T04:05:30.859Z,15.30
2019-05-30T04:07:59.922Z,15.30
2019-05-30T04:10:31.327Z,15.30
2019-05-30T04:13:25.610Z,15.30
2019-05-30T04:15:54.740Z,15.30
2019-05-30T04:18:23.765Z,15.30
2019-05-30T04:20:52.753Z,15.30
2019-05-30T04:23:21.790Z,15.30
2019-05-30T04:25:50.846Z,15.30
2019-05-30T04:28:19.913Z,15.30
2019-05-30T04:30:48.960Z,15.30
2019-05-30T04:33:31.678Z,15.30
2019-05-30T04:35:48.742Z,15.30
2019-05-30T04:38:19.468Z,15.30
2019-05-30T04:40:48.519Z,15.30
2019-05-30T04:43:18.013Z,15.30
2019-05-30T04:45:48.637Z,15.30
2019-05-30T04:48:18.631Z,15.40
2019-05-30T04:50:48.190Z,15.40
2019-05-30T04:53:18.458Z,15.40
2019-05-30T04:55:47.605Z,15.40
2019-05-30T04:58:18.037Z,15.40
2019-05-30T05:00:47.586Z,15.40
2019-05-30T05:03:23.244Z,15.40
2019-05-30T05:05:47.454Z,15.40
2019-05-30T05:08:17.766Z,15.40
2019-05-30T05:10:47.058Z,15.40
2019-05-30T05:13:18.324Z,15.40
2019-05-30T05:15:47.532Z,15.40
2019-05-30T05:18:16.912Z,15.50
2019-05-30T05:20:46.106Z,15.50
2019-05-30T05:23:15.174Z,15.50
2019-05-30T05:25:57.757Z,15.50
2019-05-30T05:28:15.763Z,15.50
2019-05-30T05:30:44.873Z,15.50
2019-05-30T05:33:16.541Z,15.50
2019-05-30T05:35:45.804Z,15.60
2019-05-30T05:38:16.398Z,15.60
2019-05-30T05:40:45.516Z,15.60
2019-05-30T05:43:14.676Z,15.60
2019-05-30T05:45:43.800Z,15.60
2019-05-30T05:48:12.867Z,15.60
2019-05-30T05:50:41.918Z,15.60
2019-05-30T05:53:10.974Z,15.60
2019-05-30T05:55:40.010Z,15.60
2019-05-30T05:58:09.028Z,15.70
2019-05-30T06:00:38.200Z,15.70
2019-05-30T06:03:07.201Z,15.70
2019-05-30T06:05:36.202Z,15.70
2019-05-30T06:08:05.400Z,15.70
2019-05-30T06:10:34.422Z,15.70
2019-05-30T06:13:03.467Z,15.70
2019-05-30T06:15:32.534Z,15.80
2019-05-30T06:18:01.610Z,15.80
2019-05-30T06:20:32.269Z,15.80
2019-05-30T06:23:01.331Z,15.80
2019-05-30T06:25:32.723Z,15.80
2019-05-30T06:28:01.050Z,15.80
2019-05-30T06:30:30.070Z,15.80
2019-05-30T06:32:59.146Z,15.80
2019-05-30T06:35:29.519Z,15.90
2019-05-30T06:37:58.612Z,15.80
2019-05-30T06:40:30.900Z,15.80
2019-05-30T06:42:58.514Z,15.90
2019-05-30T06:45:28.380Z,15.90
2019-05-30T06:47:57.680Z,15.90
2019-05-30T06:50:26.906Z,15.90
2019-05-30T06:52:56.096Z,16.00
2019-05-30T06:55:25.299Z,16.00
2019-05-30T06:57:54.303Z,16.00
2019-05-30T07:00:23.753Z,16.00
2019-05-30T07:02:53.185Z,16.00
2019-05-30T07:05:23.420Z,16.10
2019-05-30T07:07:55.026Z,16.00
2019-05-30T07:10:24.859Z,16.10
2019-05-30T07:12:55.614Z,16.10
2019-05-30T07:15:25.094Z,16.10
2019-05-30T07:17:54.310Z,16.20
2019-05-30T07:20:23.559Z,16.20
2019-05-30T07:22:52.599Z,16.20
2019-05-30T07:25:21.638Z,16.20
2019-05-30T07:27:50.788Z,16.30
2019-05-30T07:30:19.914Z,16.30
2019-05-30T07:32:49.071Z,16.40
2019-05-30T07:35:18.113Z,16.40
2019-05-30T07:37:47.114Z,16.40
2019-05-30T07:40:19.374Z,16.40
2019-05-30T07:42:46.860Z,16.40
2019-05-30T07:45:15.979Z,16.40
2019-05-30T07:47:44.922Z,16.50
2019-05-30T07:50:13.979Z,16.50
2019-05-30T07:52:43.049Z,16.50
2019-05-30T07:55:31.336Z,16.60
2019-05-30T07:58:00.384Z,16.60
2019-05-30T08:00:29.455Z,16.60
2019-05-30T08:02:58.501Z,16.60
2019-05-30T08:05:28.579Z,16.70
2019-05-30T08:07:57.669Z,16.70
2019-05-30T08:10:27.730Z,16.70
2019-05-30T08:12:56.895Z,16.70
2019-05-30T08:15:27.176Z,16.70
2019-05-30T08:17:56.306Z,16.70
2019-05-30T08:20:25.429Z,16.70
2019-05-30T08:22:54.478Z,16.70
2019-05-30T08:25:23.567Z,16.80
2019-05-30T08:27:52.713Z,16.80
2019-05-30T08:30:21.766Z,16.80
2019-05-30T08:32:50.786Z,16.90
2019-05-30T08:35:19.780Z,16.90
2019-05-30T08:37:52.520Z,16.90
2019-05-30T08:40:22.114Z,17.00
2019-05-30T08:42:51.274Z,17.00
2019-05-30T08:45:20.758Z,17.10
2019-05-30T08:47:49.843Z,17.10
2019-05-30T08:50:18.862Z,17.10
2019-05-30T08:52:47.921Z,17.20
2019-05-30T08:55:19.362Z,17.20
2019-05-30T08:57:48.122Z,17.30
2019-05-30T09:00:17.234Z,17.30
2019-05-30T09:02:46.923Z,17.30
2019-05-30T09:05:16.115Z,17.30
2019-05-30T09:07:46.256Z,17.40
2019-05-30T09:10:15.419Z,17.40
2019-05-30T09:12:48.769Z,17.50
2019-05-30T09:15:15.222Z,17.50
2019-05-30T09:17:44.866Z,17.50
2019-05-30T09:20:15.090Z,17.60
2019-05-30T09:22:45.368Z,17.60
2019-05-30T09:25:17.101Z,17.70
2019-05-30T09:27:46.721Z,17.80
2019-05-30T09:30:15.893Z,17.90
2019-05-30T09:32:45.275Z,18.00
2019-05-30T09:35:14.571Z,18.10
2019-05-30T09:37:44.139Z,18.10
2019-05-30T09:40:20.359Z,18.20
2019-05-30T09:42:50.371Z,18.20
2019-05-30T09:45:19.799Z,18.30
2019-05-30T09:47:49.332Z,18.40
2019-05-30T09:50:18.896Z,18.40
2019-05-30T09:52:49.161Z,18.50
2019-05-30T09:55:18.440Z,18.50
2019-05-30T09:57:47.658Z,18.60
2019-05-30T10:00:16.970Z,18.60
2019-05-30T10:02:46.720Z,18.60
2019-05-30T10:05:15.968Z,18.70
2019-05-30T10:07:45.576Z,18.70
2019-05-30T10:10:15.703Z,18.80
2019-05-30T10:12:45.534Z,18.80
2019-05-30T10:15:19.592Z,18.80
2019-05-30T10:17:51.809Z,18.90
2019-05-30T10:20:20.085Z,18.90
2019-05-30T10:22:50.822Z,19.00
2019-05-30T10:25:21.290Z,19.00
2019-05-30T10:27:51.157Z,19.00
2019-05-30T10:30:21.055Z,19.20
2019-05-30T10:32:50.677Z,19.20
2019-05-30T10:35:20.982Z,19.30
2019-05-30T10:37:50.935Z,19.30
2019-05-30T10:40:22.250Z,19.30
2019-05-30T10:42:53.156Z,19.40
2019-05-30T10:45:22.169Z,19.40
2019-05-30T10:47:51.434Z,19.40
2019-05-30T10:50:20.457Z,19.40
2019-05-30T10:52:49.567Z,19.40
2019-05-30T10:55:18.615Z,19.40
2019-05-30T10:57:48.646Z,19.40
2019-05-30T11:00:18.444Z,19.40
2019-05-30T11:02:49.256Z,19.40
2019-05-30T11:05:18.347Z,19.50
2019-05-30T11:08:01.961Z,19.50
2019-05-30T11:10:35.895Z,19.50
2019-05-30T11:13:06.060Z,19.50
2019-05-30T11:15:35.187Z,19.50
2019-05-30T11:18:04.278Z,19.60
2019-05-30T11:20:33.359Z,19.60
2019-05-30T11:23:02.383Z,19.70
2019-05-30T11:25:31.790Z,19.70
2019-05-30T11:28:00.859Z,19.70
2019-05-30T11:30:29.880Z,19.80
2019-05-30T11:32:59.445Z,19.90
2019-05-30T11:35:28.671Z,20.00
2019-05-30T11:37:57.738Z,20.00
2019-05-30T11:40:26.769Z,20.00
2019-05-30T11:42:55.798Z,20.10
2019-05-30T11:45:24.826Z,20.10
2019-05-30T11:47:53.949Z,20.20
2019-05-30T11:50:24.661Z,20.40
2019-05-30T11:52:53.839Z,20.50
2019-05-30T11:55:22.831Z,20.50
2019-05-30T11:57:52.104Z,20.60
2019-05-30T12:00:21.210Z,20.80
2019-05-30T12:02:50.291Z,20.90
2019-05-30T12:05:20.011Z,21.00
2019-05-30T12:07:49.006Z,21.20
2019-05-30T12:10:18.197Z,21.30
2019-05-30T12:12:47.278Z,21.50
2019-05-30T12:15:17.519Z,21.70
2019-05-30T12:17:46.541Z,21.80
2019-05-30T12:20:15.548Z,22.00
2019-05-30T12:22:44.691Z,22.00
2019-05-30T12:25:13.772Z,22.20
2019-05-30T12:27:42.881Z,22.30
2019-05-30T12:30:11.904Z,22.50
2019-05-30T12:32:40.923Z,22.60
2019-05-30T12:35:10.170Z,22.70
2019-05-30T12:37:53.273Z,22.80
2019-05-30T12:40:10.142Z,22.90
2019-05-30T12:42:39.154Z,23.00
2019-05-30T12:45:08.298Z,23.10
2019-05-30T12:47:37.337Z,23.20
2019-05-30T12:50:07.107Z,23.30
2019-05-30T12:52:36.127Z,23.40
2019-05-30T12:55:06.880Z,23.50
2019-05-30T12:57:36.066Z,23.50
2019-05-30T13:00:13.653Z,23.50
2019-05-30T13:02:36.642Z,23.60
2019-05-30T13:05:05.690Z,23.70
2019-05-30T13:07:34.779Z,23.80
2019-05-30T13:10:03.936Z,23.90
2019-05-30T13:12:33.036Z,24.00
2019-05-30T13:15:02.077Z,24.20
2019-05-30T13:17:31.156Z,24.20
2019-05-30T13:20:01.437Z,24.30
2019-05-30T13:22:30.670Z,24.50
2019-05-30T13:24:59.774Z,24.50
2019-05-30T13:27:28.848Z,24.50
2019-05-30T13:29:58.031Z,24.60
2019-05-30T13:32:27.063Z,24.60
2019-05-30T13:34:56.810Z,24.70
2019-05-30T13:37:25.961Z,24.70
2019-05-30T13:39:54.942Z,25.00
2019-05-30T13:42:23.952Z,25.00
2019-05-30T13:44:52.978Z,25.20
2019-05-30T13:47:21.991Z,25.30
2019-05-30T13:49:51.122Z,25.40
2019-05-30T13:52:20.125Z,25.50
2019-05-30T13:54:49.171Z,25.50
2019-05-30T13:57:18.250Z,25.60
2019-05-30T13:59:47.310Z,25.70
2019-05-30T14:02:16.410Z,25.80
2019-05-30T14:04:45.468Z,25.90
2019-05-30T14:07:14.520Z,26.10
2019-05-30T14:09:43.535Z,26.20
2019-05-30T14:12:12.585Z,26.20
2019-05-30T14:14:41.752Z,26.20
2019-05-30T14:17:12.428Z,26.20
2019-05-30T14:19:44.246Z,26.20
2019-05-30T14:22:13.266Z,26.30
2019-05-30T14:24:42.329Z,26.30
2019-05-30T14:27:11.817Z,26.30
2019-05-30T14:29:43.909Z,26.40
2019-05-30T14:32:12.952Z,26.40
2019-05-30T14:34:42.042Z,26.40
2019-05-30T14:37:11.127Z,26.40
2019-05-30T14:39:40.129Z,26.40
2019-05-30T14:42:09.236Z,26.40
2019-05-30T14:44:38.327Z,26.50
2019-05-30T14:47:08.362Z,26.50
2019-05-30T14:49:37.385Z,26.50
2019-05-30T14:52:06.726Z,26.60
2019-05-30T14:54:35.878Z,26.70
2019-05-30T14:57:05.030Z,26.70
2019-05-30T14:59:34.075Z,26.70
2019-05-30T15:02:03.113Z,26.80
2019-05-30T15:04:32.167Z,26.80
2019-05-30T15:07:01.234Z,26.90
2019-05-30T15:09:30.255Z,26.90
2019-05-30T15:11:59.231Z,26.90
2019-05-30T15:14:28.344Z,26.80
2019-05-30T15:16:57.392Z,26.80
2019-05-30T15:19:26.459Z,26.80
2019-05-30T15:21:55.498Z,26.80
2019-05-30T15:24:24.603Z,26.80
2019-05-30T15:26:53.683Z,26.90
2019-05-30T15:29:22.751Z,27.00
2019-05-30T15:31:51.816Z,27.00
2019-05-30T15:34:20.826Z,26.90
2019-05-30T15:36:49.878Z,26.90
2019-05-30T15:39:31.118Z,26.80
2019-05-30T15:41:49.664Z,26.80
2019-05-30T15:44:18.739Z,26.80
2019-05-30T15:46:47.762Z,26.70
2019-05-30T15:49:16.755Z,26.60
2019-05-30T15:51:45.818Z,26.50
2019-05-30T15:54:15.037Z,26.40
2019-05-30T15:56:44.131Z,26.30
2019-05-30T15:59:13.686Z,26.20
2019-05-30T16:01:42.702Z,26.10
2019-05-30T16:04:12.048Z,26.00
2019-05-30T16:06:42.335Z,25.90
2019-05-30T16:09:12.372Z,25.80
2019-05-30T16:11:41.727Z,25.80
2019-05-30T16:14:11.127Z,25.80
2019-05-30T16:16:40.697Z,25.90
2019-05-30T16:19:18.372Z,26.00
2019-05-30T16:21:40.574Z,26.10
2019-05-30T16:24:09.625Z,26.30
2019-05-30T16:26:38.691Z,26.40
2019-05-30T16:29:07.754Z,26.50
2019-05-30T16:31:36.826Z,26.50
2019-05-30T16:34:05.828Z,26.40
2019-05-30T16:36:34.839Z,26.40
2019-05-30T16:39:04.061Z,26.30
2019-05-30T16:41:33.024Z,26.20
2019-05-30T16:44:02.279Z,26.10
2019-05-30T16:46:31.398Z,25.90
2019-05-30T16:49:00.443Z,25.80
2019-05-30T16:51:29.504Z,25.80
2019-05-30T16:53:58.545Z,25.70
2019-05-30T16:56:27.569Z,25.60
2019-05-30T16:58:56.620Z,25.60
2019-05-30T17:01:26.017Z,25.50
2019-05-30T17:03:55.131Z,25.40
2019-05-30T17:06:24.172Z,25.30
2019-05-30T17:08:53.228Z,25.20
2019-05-30T17:11:23.446Z,25.10
2019-05-30T17:13:52.618Z,25.00
2019-05-30T17:16:22.101Z,25.00
2019-05-30T17:18:51.122Z,24.90
2019-05-30T17:21:21.115Z,24.90
2019-05-30T17:23:50.201Z,24.80
2019-05-30T17:26:19.207Z,24.70
2019-05-30T17:28:48.331Z,24.70
2019-05-30T17:31:17.649Z,24.60
2019-05-30T17:33:46.751Z,24.50
2019-05-30T17:36:15.778Z,24.40
2019-05-30T17:38:44.926Z,24.30
2019-05-30T17:41:14.021Z,24.30
2019-05-30T17:43:43.104Z,24.20
2019-05-30T17:46:12.539Z,24.10
2019-05-30T17:48:44.639Z,24.10
2019-05-30T17:51:13.700Z,24.10
2019-05-30T17:53:42.759Z,24.00
2019-05-30T17:56:11.802Z,24.00
2019-05-30T17:58:40.862Z,23.90
2019-05-30T18:01:09.993Z,23.90
2019-05-30T18:03:39.058Z,23.90
2019-05-30T18:06:08.105Z,23.90
2019-05-30T18:08:37.186Z,23.80
2019-05-30T18:11:06.218Z,23.70
2019-05-30T18:13:35.207Z,23.70
2019-05-30T18:16:04.342Z,23.60
2019-05-30T18:18:33.386Z,23.60
2019-05-30T18:21:02.445Z,23.50
2019-05-30T18:23:31.843Z,23.50
2019-05-30T18:26:00.969Z,23.50
2019-05-30T18:28:30.015Z,23.40
2019-05-30T18:30:59.035Z,23.40
2019-05-30T18:33:28.381Z,23.30
2019-05-30T18:35:57.524Z,23.30
2019-05-30T18:38:26.610Z,23.20
2019-05-30T18:41:10.257Z,23.20
2019-05-30T18:43:26.787Z,23.10
2019-05-30T18:45:55.944Z,23.10
2019-05-30T18:48:25.272Z,23.00
2019-05-30T18:50:54.455Z,22.90
2019-05-30T18:53:24.224Z,22.90
2019-05-30T18:55:53.326Z,22.80
2019-05-30T18:58:22.305Z,22.80
2019-05-30T19:00:51.421Z,22.70
2019-05-30T19:03:20.498Z,22.70
2019-05-30T19:05:49.554Z,22.60
2019-05-30T19:08:18.571Z,22.60
2019-05-30T19:10:47.628Z,22.50
2019-05-30T19:13:16.798Z,22.40
2019-05-30T19:15:45.820Z,22.30
2019-05-30T19:18:14.858Z,22.30
2019-05-30T19:20:43.938Z,22.20
2019-05-30T19:23:12.997Z,22.20
2019-05-30T19:25:42.320Z,22.10
2019-05-30T19:28:11.359Z,22.10
2019-05-30T19:30:41.209Z,22.00
2019-05-30T19:33:10.315Z,22.00
2019-05-30T19:35:39.292Z,22.00
2019-05-30T19:38:08.408Z,21.90
2019-05-30T19:40:38.048Z,21.90
2019-05-30T19:43:07.410Z,21.80
2019-05-30T19:45:36.664Z,21.80
2019-05-30T19:48:05.699Z,21.70
2019-05-30T19:50:34.742Z,21.70
2019-05-30T19:53:03.791Z,21.60
2019-05-30T19:55:33.236Z,21.60
2019-05-30T19:58:02.317Z,21.50
2019-05-30T20:00:31.993Z,21.50
2019-05-30T20:03:01.146Z,21.50
2019-05-30T20:05:30.512Z,21.40
2019-05-30T20:07:59.500Z,21.40
2019-05-30T20:10:28.477Z,21.40
2019-05-30T20:12:57.490Z,21.30
2019-05-30T20:15:26.530Z,21.30
2019-05-30T20:17:55.629Z,21.20
2019-05-30T20:20:24.689Z,21.20
2019-05-30T20:22:53.763Z,21.20
2019-05-30T20:25:22.735Z,21.20
2019-05-30T20:27:51.874Z,21.10
2019-05-30T20:30:20.921Z,21.10
2019-05-30T20:32:49.966Z,21.10
2019-05-30T20:35:19.044Z,21.00
2019-05-30T20:37:48.095Z,21.00
2019-05-30T20:40:36.896Z,21.00
2019-05-30T20:43:06.181Z,20.90
2019-05-30T20:45:39.573Z,20.90
2019-05-30T20:48:17.575Z,20.90
2019-05-30T20:50:47.406Z,20.80
2019-05-30T20:53:16.460Z,20.80
2019-05-30T20:55:46.773Z,20.80
2019-05-30T20:58:15.932Z,20.80
2019-05-30T21:00:45.831Z,20.80
2019-05-30T21:03:14.929Z,20.70
2019-05-30T21:05:44.156Z,20.70
2019-05-30T21:08:13.843Z,20.70
2019-05-30T21:10:43.286Z,20.60
2019-05-30T21:13:12.263Z,20.60
2019-05-30T21:15:41.767Z,20.60
2019-05-30T21:18:17.927Z,20.60
2019-05-30T21:20:46.896Z,20.60
2019-05-30T21:23:16.117Z,20.50
2019-05-30T21:25:45.246Z,20.50
2019-05-30T21:28:14.281Z,20.50
2019-05-30T21:30:43.383Z,20.50
2019-05-30T21:33:12.377Z,20.40
2019-05-30T21:35:41.795Z,20.40
2019-05-30T21:38:11.007Z,20.40
2019-05-30T21:40:40.398Z,20.40
2019-05-30T21:43:09.554Z,20.40
2019-05-30T21:45:38.572Z,20.30
2019-05-30T21:48:07.591Z,20.30
2019-05-30T21:50:36.682Z,20.30
2019-05-30T21:53:05.725Z,20.30
2019-05-30T21:55:34.812Z,20.30
2019-05-30T21:58:03.815Z,20.20
2019-05-30T22:01:09.216Z,20.20
2019-05-30T22:03:38.260Z,20.20
2019-05-30T22:06:07.311Z,20.20
2019-05-30T22:08:36.331Z,20.20
2019-05-30T22:11:05.352Z,20.10
2019-05-30T22:13:34.404Z,20.10
2019-05-30T22:16:03.449Z,20.10
2019-05-30T22:18:32.523Z,20.10
2019-05-30T22:21:01.598Z,20.10
2019-05-30T22:23:30.665Z,20.10
2019-05-30T22:25:59.691Z,20.10
2019-05-30T22:28:28.737Z,20.00
2019-05-30T22:30:57.821Z,20.00
2019-05-30T22:33:26.887Z,20.00
2019-05-30T22:35:55.885Z,20.00
2019-05-30T22:38:24.926Z,19.90
2019-05-30T22:40:54.365Z,19.90
2019-05-30T22:43:25.515Z,20.00
2019-05-30T22:45:54.254Z,20.00
2019-05-30T22:48:23.298Z,19.90
2019-05-30T22:50:54.702Z,19.90
2019-05-30T22:53:23.708Z,19.90
2019-05-30T22:55:53.633Z,19.90
2019-05-30T22:58:22.664Z,19.80
2019-05-30T23:00:52.078Z,19.80
2019-05-30T23:03:21.248Z,19.80
2019-05-30T23:05:51.500Z,19.80
2019-05-30T23:08:20.681Z,19.80
2019-05-30T23:10:49.724Z,19.80
2019-05-30T23:13:18.686Z,19.70
2019-05-30T23:15:48.156Z,19.70
2019-05-30T23:18:17.274Z,19.70
2019-05-30T23:20:46.651Z,19.70
2019-05-30T23:23:15.757Z,19.70
2019-05-30T23:25:44.797Z,19.70
2019-05-30T23:28:13.968Z,19.70
2019-05-30T23:30:42.975Z,19.60
2019-05-30T23:33:12.082Z,19.60
2019-05-30T23:35:41.123Z,19.60
2019-05-30T23:38:10.152Z,19.60
2019-05-30T23:40:39.158Z,19.60
2019-05-30T23:43:08.097Z,19.60
2019-05-30T23:45:37.089Z,19.60
2019-05-30T23:48:06.079Z,19.60
2019-05-30T23:50:35.101Z,19.60
2019-05-30T23:53:04.145Z,19.50
2019-05-30T23:55:33.198Z,19.50
2019-05-30T23:58:02.262Z,19.50
